createdAt,value
2022-11-23T00:00:34.221Z,77.10
2022-11-23T00:05:36.858Z,76.78
2022-11-23T00:10:39.365Z,77.00
2022-11-23T00:15:42.046Z,76.08
2022-11-23T00:20:45.234Z,76.58
2022-11-23T00:25:47.860Z,76.41
2022-11-23T00:30:51.078Z,76.15
2022-11-23T00:36:14.110Z,75.85
2022-11-23T00:41:19.330Z,75.86
2022-11-23T00:46:27.274Z,75.94
2022-11-23T00:51:32.290Z,76.30
2022-11-23T00:56:35.615Z,76.07
2022-11-23T01:01:38.537Z,76.12
2022-11-23T01:06:41.346Z,76.41
2022-11-23T01:11:44.255Z,76.59
2022-11-23T01:16:47.014Z,76.27
2022-11-23T01:21:50.142Z,76.51
2022-11-23T01:26:54.076Z,76.60
2022-11-23T01:31:56.786Z,76.66
2022-11-23T01:36:59.741Z,76.56
2022-11-23T01:42:07.333Z,77.06
2022-11-23T01:47:11.142Z,76.90
2022-11-23T01:52:16.877Z,76.57
2022-11-23T01:57:46.017Z,76.81
2022-11-23T02:02:54.521Z,76.69
2022-11-23T02:07:57.615Z,76.68
2022-11-23T02:13:06.181Z,76.29
2022-11-23T02:18:32.249Z,76.26
2022-11-23T02:23:37.861Z,76.13
2022-11-23T02:28:56.130Z,76.05
2022-11-23T02:33:58.980Z,75.68
2022-11-23T02:39:06.130Z,76.02
2022-11-23T02:44:33.741Z,75.54
2022-11-23T02:49:36.555Z,75.17
2022-11-23T02:54:39.292Z,74.83
2022-11-23T02:59:41.929Z,75.07
2022-11-23T03:04:44.733Z,75.00
2022-11-23T03:09:47.725Z,74.66
2022-11-23T03:14:50.657Z,75.09
2022-11-23T03:19:54.395Z,74.75
2022-11-23T03:24:59.233Z,74.67
2022-11-23T03:30:02.045Z,75.08
2022-11-23T03:35:09.630Z,74.44
2022-11-23T03:40:23.283Z,74.80
2022-11-23T03:45:47.971Z,74.22
2022-11-23T03:50:50.664Z,74.07
2022-11-23T03:55:55.843Z,73.65
2022-11-23T04:01:00.304Z,73.98
2022-11-23T04:06:04.003Z,73.75
2022-11-23T04:11:09.376Z,73.39
2022-11-23T04:16:15.365Z,73.19
2022-11-23T04:21:18.148Z,73.52
2022-11-23T04:26:21.014Z,73.28
2022-11-23T04:31:24.243Z,72.67
2022-11-23T04:36:35.934Z,72.48
2022-11-23T04:41:39.284Z,72.32
2022-11-23T04:46:42.297Z,71.66
2022-11-23T04:51:48.577Z,71.49
2022-11-23T04:56:54.595Z,71.70
2022-11-23T05:01:57.368Z,71.55
2022-11-23T05:07:29.130Z,71.51
2022-11-23T05:12:36.896Z,71.02
2022-11-23T05:17:39.875Z,70.86
2022-11-23T05:22:48.538Z,70.76
2022-11-23T05:27:55.922Z,70.44
2022-11-23T05:33:03.564Z,70.10
2022-11-23T05:38:07.066Z,69.96
2022-11-23T05:43:10.663Z,69.69
2022-11-23T05:48:13.568Z,69.63
2022-11-23T05:53:28.956Z,69.84
2022-11-23T05:58:40.253Z,70.27
2022-11-23T06:03:44.771Z,69.71
2022-11-23T06:08:49.249Z,69.56
2022-11-23T06:13:54.879Z,68.70
2022-11-23T06:18:57.716Z,68.40
2022-11-23T06:24:00.454Z,68.59
2022-11-23T06:29:06.218Z,68.39
2022-11-23T06:34:09.893Z,67.48
2022-11-23T06:39:13.700Z,67.99
2022-11-23T06:44:16.811Z,67.60
2022-11-23T06:49:20.899Z,67.93
2022-11-23T06:54:40.398Z,67.40
2022-11-23T06:59:45.962Z,67.23
2022-11-23T07:04:52.765Z,66.11
2022-11-23T07:09:57.633Z,65.63
2022-11-23T07:15:15.684Z,65.49
2022-11-23T07:20:20.279Z,65.57
2022-11-23T07:25:23.134Z,65.74
2022-11-23T07:30:29.380Z,65.67
2022-11-23T07:35:35.088Z,65.77
2022-11-23T07:40:38.923Z,65.70
2022-11-23T07:45:47.392Z,65.72
2022-11-23T07:50:55.622Z,65.70
2022-11-23T07:56:01.401Z,65.81
2022-11-23T08:01:04.246Z,65.95
2022-11-23T08:06:10.488Z,66.35
2022-11-23T08:11:15.160Z,65.81
2022-11-23T08:16:18.978Z,65.84
2022-11-23T08:21:22.576Z,65.65
2022-11-23T08:26:25.455Z,64.99
2022-11-23T08:31:28.284Z,65.16
2022-11-23T08:36:31.039Z,65.69
2022-11-23T08:41:34.330Z,65.20
2022-11-23T08:46:37.474Z,65.48
2022-11-23T08:51:40.163Z,65.87
2022-11-23T08:56:43.222Z,65.54
2022-11-23T09:01:46.223Z,66.07
2022-11-23T09:06:48.871Z,66.05
2022-11-23T09:11:51.749Z,65.75
2022-11-23T09:16:55.289Z,66.48
2022-11-23T09:21:58.475Z,66.39
2022-11-23T09:27:01.393Z,66.42
2022-11-23T09:32:04.209Z,66.97
2022-11-23T09:37:06.901Z,66.09
2022-11-23T09:42:15.539Z,67.14
2022-11-23T09:47:45.798Z,66.75
2022-11-23T09:52:49.694Z,67.11
2022-11-23T09:57:58.297Z,67.06
2022-11-23T10:03:01.668Z,67.18
2022-11-23T10:08:23.113Z,67.70
2022-11-23T10:13:31.733Z,68.26
2022-11-23T10:18:55.896Z,68.70
2022-11-23T10:24:25.830Z,68.46
2022-11-23T10:29:35.779Z,67.92
2022-11-23T10:35:09.230Z,68.94
2022-11-23T10:40:25.245Z,68.69
2022-11-23T10:45:29.646Z,69.12
2022-11-23T10:50:37.827Z,68.84
2022-11-23T10:55:50.117Z,69.37
2022-11-23T11:01:01.498Z,68.82
2022-11-23T11:06:09.626Z,69.60
2022-11-23T11:11:24.008Z,69.67
2022-11-23T11:16:32.892Z,68.65
2022-11-23T11:21:39.136Z,69.80
2022-11-23T11:26:50.787Z,69.09
2022-11-23T11:32:13.573Z,69.54
2022-11-23T11:37:38.252Z,68.96
2022-11-23T11:42:44.005Z,69.34
2022-11-23T11:47:51.307Z,69.57
2022-11-23T11:52:59.798Z,70.31
2022-11-23T11:58:11.692Z,69.63
2022-11-23T12:03:48.621Z,70.25
2022-11-23T12:09:28.680Z,70.20
2022-11-23T12:14:32.041Z,69.50
2022-11-23T12:19:43.443Z,70.23
2022-11-23T12:25:11.922Z,70.74
2022-11-23T12:30:37.523Z,70.09
2022-11-23T12:35:57.725Z,69.75
2022-11-23T12:41:24.871Z,70.27
2022-11-23T12:46:55.195Z,70.19
2022-11-23T12:52:06.826Z,70.44
2022-11-23T12:57:31.244Z,69.83
2022-11-23T13:03:06.356Z,70.48
2022-11-23T13:08:38.211Z,70.77
2022-11-23T13:14:08.514Z,70.29
2022-11-23T13:19:26.315Z,71.13
2022-11-23T13:24:37.350Z,70.76
2022-11-23T13:29:47.761Z,70.85
2022-11-23T13:34:51.587Z,71.70
2022-11-23T13:39:57.909Z,70.86
2022-11-23T13:45:22.258Z,71.09
2022-11-23T13:50:24.984Z,70.36
2022-11-23T13:55:40.131Z,71.55
2022-11-23T14:00:50.160Z,70.94
2022-11-23T14:06:00.588Z,71.09
2022-11-23T14:11:11.347Z,70.73
2022-11-23T14:16:17.906Z,71.63
2022-11-23T14:21:26.038Z,71.33
2022-11-23T14:27:45.208Z,70.44
2022-11-23T14:33:11.246Z,70.91
2022-11-23T14:38:39.615Z,70.79
2022-11-23T14:43:43.199Z,71.65
2022-11-23T14:48:47.045Z,71.58
2022-11-23T14:53:55.085Z,71.68
2022-11-23T14:59:02.516Z,71.17
2022-11-23T15:04:11.194Z,71.89
2022-11-23T15:09:41.663Z,70.88
2022-11-23T15:14:44.416Z,71.52
2022-11-23T15:20:12.264Z,71.64
2022-11-23T15:25:16.703Z,71.31
2022-11-23T15:30:32.356Z,71.54
2022-11-23T15:35:37.029Z,71.56
2022-11-23T15:40:42.594Z,71.64
2022-11-23T15:45:45.677Z,70.90
2022-11-23T15:50:59.732Z,72.21
2022-11-23T15:56:05.639Z,71.93
2022-11-23T16:01:11.492Z,72.42
2022-11-23T16:06:14.137Z,71.35
2022-11-23T16:11:33.732Z,71.16
2022-11-23T16:16:38.346Z,72.34
2022-11-23T16:21:45.504Z,71.50
2022-11-23T16:26:48.232Z,71.76
2022-11-23T16:32:03.264Z,71.82
2022-11-23T16:37:05.958Z,71.77
2022-11-23T16:42:14.273Z,72.14
2022-11-23T16:47:26.907Z,71.90
2022-11-23T16:52:29.614Z,71.90
2022-11-23T16:57:34.356Z,71.75
2022-11-23T17:02:37.020Z,72.29
2022-11-23T17:07:39.901Z,71.98
2022-11-23T17:12:53.763Z,72.00
2022-11-23T17:17:56.447Z,72.37
2022-11-23T17:23:01.504Z,71.69
2022-11-23T17:28:05.739Z,71.73
2022-11-23T17:33:11.187Z,72.22
2022-11-23T17:38:16.234Z,72.19
2022-11-23T17:43:19.332Z,72.08
2022-11-23T17:48:22.224Z,72.63
2022-11-23T17:53:25.705Z,72.32
2022-11-23T17:58:28.849Z,72.09
2022-11-23T18:03:31.556Z,72.44
2022-11-23T18:08:34.318Z,71.94
2022-11-23T18:13:37.580Z,72.16
2022-11-23T18:18:40.220Z,72.36
2022-11-23T18:23:43.202Z,72.42
2022-11-23T18:28:46.331Z,72.07
2022-11-23T18:33:48.976Z,72.80
2022-11-23T18:38:51.608Z,72.68
2022-11-23T18:43:54.874Z,72.41
2022-11-23T18:48:57.839Z,72.20
2022-11-23T18:54:00.633Z,72.00
2022-11-23T18:59:03.662Z,72.44
2022-11-23T19:04:06.864Z,72.29
2022-11-23T19:09:11.977Z,72.46
2022-11-23T19:14:14.834Z,72.19
2022-11-23T19:19:18.872Z,72.47
2022-11-23T19:24:21.497Z,73.03
2022-11-23T19:29:25.297Z,72.56
2022-11-23T19:34:28.003Z,72.27
2022-11-23T19:39:30.969Z,73.10
2022-11-23T19:44:33.873Z,72.85
2022-11-23T19:49:36.567Z,72.47
2022-11-23T19:54:39.227Z,72.18
2022-11-23T19:59:44.629Z,72.58
2022-11-23T20:04:48.134Z,72.67
2022-11-23T20:09:50.790Z,72.57
2022-11-23T20:14:53.413Z,72.69
2022-11-23T20:19:56.137Z,72.85
2022-11-23T20:25:00.381Z,72.97
2022-11-23T20:30:03.312Z,72.27
2022-11-23T20:35:06.771Z,72.72
2022-11-23T20:40:09.984Z,72.09
2022-11-23T20:45:12.783Z,71.75
2022-11-23T20:50:15.755Z,71.60
2022-11-23T20:55:23.733Z,72.17
2022-11-23T21:00:26.640Z,72.35
2022-11-23T21:05:29.493Z,72.05
2022-11-23T21:10:50.382Z,71.75
2022-11-23T21:15:53.042Z,71.46
2022-11-23T21:20:55.815Z,71.97
2022-11-23T21:26:06.039Z,71.96
2022-11-23T21:31:09.810Z,71.17
2022-11-23T21:36:12.831Z,71.27
2022-11-23T21:41:18.284Z,71.67
2022-11-23T21:46:21.953Z,71.28
2022-11-23T21:51:27.416Z,71.09
2022-11-23T21:56:30.307Z,70.76
2022-11-23T22:01:34.909Z,70.36
2022-11-23T22:06:38.906Z,70.16
2022-11-23T22:11:43.536Z,70.56
2022-11-23T22:16:47.875Z,69.73
2022-11-23T22:21:50.572Z,70.51
2022-11-23T22:26:53.335Z,69.89
2022-11-23T22:31:56.077Z,70.08
2022-11-23T22:36:58.914Z,69.79
2022-11-23T22:42:01.677Z,69.77
2022-11-23T22:47:04.482Z,70.19
2022-11-23T22:52:07.175Z,70.00
2022-11-23T22:57:10.143Z,70.26
2022-11-23T23:02:12.891Z,70.10
2022-11-23T23:07:15.721Z,70.50
2022-11-23T23:12:18.465Z,70.69
2022-11-23T23:17:21.183Z,70.66
2022-11-23T23:22:23.953Z,70.53
2022-11-23T23:27:26.714Z,70.94
2022-11-23T23:32:29.478Z,70.89
2022-11-23T23:37:32.580Z,70.71
2022-11-23T23:42:35.487Z,71.10
2022-11-23T23:47:38.299Z,70.68
2022-11-23T23:52:41.100Z,70.86
2022-11-23T23:57:43.842Z,71.35
